createdAt,value
2022-11-12T00:02:09.645Z,4.04
2022-11-12T00:04:36.100Z,3.65
2022-11-12T00:07:02.559Z,3.23
2022-11-12T00:09:29.060Z,3.05
2022-11-12T00:11:55.555Z,3.53
2022-11-12T00:14:21.894Z,3.73
2022-11-12T00:16:48.259Z,3.70
2022-11-12T00:19:14.663Z,3.97
2022-11-12T00:21:41.032Z,4.30
2022-11-12T00:24:07.466Z,4.43
2022-11-12T00:26:33.800Z,4.59
2022-11-12T00:29:00.268Z,4.24
2022-11-12T00:31:26.739Z,4.30
2022-11-12T00:33:53.140Z,4.07
2022-11-12T00:36:19.569Z,3.38
2022-11-12T00:38:45.950Z,3.10
2022-11-12T00:41:12.386Z,2.81
2022-11-12T00:43:38.984Z,2.53
2022-11-12T00:46:05.516Z,2.70
2022-11-12T00:48:31.897Z,2.44
2022-11-12T00:50:58.334Z,2.13
2022-11-12T00:53:24.766Z,2.20
2022-11-12T00:55:51.167Z,2.29
2022-11-12T00:58:17.693Z,2.20
2022-11-12T01:00:44.066Z,2.72
2022-11-12T01:03:10.430Z,3.08
2022-11-12T01:05:36.893Z,3.04
2022-11-12T01:08:03.264Z,2.69
2022-11-12T01:10:29.708Z,2.55
2022-11-12T01:12:56.155Z,2.63
2022-11-12T01:15:22.532Z,2.85
2022-11-12T01:17:48.992Z,2.97
2022-11-12T01:20:15.366Z,2.77
2022-11-12T01:22:41.727Z,2.73
2022-11-12T01:25:08.153Z,2.85
2022-11-12T01:27:34.494Z,2.83
2022-11-12T01:30:00.905Z,2.91
2022-11-12T01:32:27.327Z,2.84
2022-11-12T01:34:53.730Z,2.95
2022-11-12T01:37:20.114Z,2.95
2022-11-12T01:39:46.528Z,2.84
2022-11-12T01:42:12.958Z,2.85
2022-11-12T01:44:39.525Z,2.86
2022-11-12T01:47:05.970Z,2.94
2022-11-12T01:51:58.797Z,3.06
2022-11-12T01:54:25.177Z,2.79
2022-11-12T01:56:51.553Z,2.90
2022-11-12T01:59:19.250Z,2.97
2022-11-12T02:01:45.732Z,3.26
2022-11-12T02:04:12.113Z,3.26
2022-11-12T02:06:39.910Z,2.97
2022-11-12T02:09:06.395Z,2.35
2022-11-12T02:11:32.760Z,2.16
2022-11-12T02:13:59.146Z,2.71
2022-11-12T02:16:25.509Z,3.49
2022-11-12T02:18:51.923Z,3.29
2022-11-12T02:21:18.268Z,3.34
2022-11-12T02:23:44.696Z,3.29
2022-11-12T02:26:11.037Z,3.22
2022-11-12T02:28:37.403Z,3.20
2022-11-12T02:31:03.784Z,3.60
2022-11-12T02:33:30.193Z,3.76
2022-11-12T02:35:56.575Z,4.13
2022-11-12T02:38:23.037Z,3.72
2022-11-12T02:40:49.651Z,3.70
2022-11-12T02:43:18.512Z,3.45
2022-11-12T02:45:44.960Z,3.79
2022-11-12T02:48:25.118Z,4.25
2022-11-12T02:50:52.950Z,4.38
2022-11-12T02:53:19.504Z,4.01
2022-11-12T02:55:46.010Z,3.94
2022-11-12T02:58:12.527Z,4.89
2022-11-12T03:00:38.970Z,5.04
2022-11-12T03:03:05.490Z,4.27
2022-11-12T03:05:31.876Z,4.11
2022-11-12T03:08:01.362Z,3.95
2022-11-12T03:10:28.925Z,4.42
2022-11-12T03:12:55.405Z,3.97
2022-11-12T03:15:21.830Z,4.28
2022-11-12T03:17:48.274Z,3.95
2022-11-12T03:20:14.702Z,3.74
2022-11-12T03:22:41.227Z,3.79
2022-11-12T03:25:10.649Z,3.33
2022-11-12T03:27:37.032Z,3.41
2022-11-12T03:30:04.715Z,3.03
2022-11-12T03:32:32.389Z,3.55
2022-11-12T03:34:58.734Z,3.21
2022-11-12T03:37:25.171Z,3.35
2022-11-12T03:39:51.588Z,3.31
2022-11-12T03:42:18.006Z,3.79
2022-11-12T03:44:44.596Z,3.88
2022-11-12T03:47:10.999Z,3.82
2022-11-12T03:49:37.430Z,3.33
2022-11-12T03:52:03.854Z,4.13
2022-11-12T03:54:30.299Z,5.28
2022-11-12T03:56:56.713Z,6.29
2022-11-12T03:59:23.092Z,6.62
2022-11-12T04:01:49.511Z,6.69
2022-11-12T04:04:15.951Z,5.22
2022-11-12T04:06:42.353Z,5.57
2022-11-12T04:09:08.762Z,3.46
2022-11-12T04:11:35.233Z,2.90
2022-11-12T04:14:01.661Z,4.01
2022-11-12T04:16:28.069Z,3.84
2022-11-12T04:18:54.489Z,4.22
2022-11-12T04:21:20.833Z,4.18
2022-11-12T04:23:47.208Z,3.11
2022-11-12T04:26:13.919Z,2.60
2022-11-12T04:28:40.385Z,2.47
2022-11-12T04:31:06.842Z,2.57
2022-11-12T04:33:33.251Z,2.34
2022-11-12T04:35:59.625Z,2.27
2022-11-12T04:38:26.523Z,2.37
2022-11-12T04:40:55.270Z,2.22
2022-11-12T04:43:21.664Z,2.32
2022-11-12T04:45:48.111Z,2.35
2022-11-12T04:48:14.507Z,2.76
2022-11-12T04:50:40.913Z,2.99
2022-11-12T04:53:07.294Z,2.98
2022-11-12T04:55:33.677Z,2.88
2022-11-12T04:58:01.051Z,3.01
2022-11-12T05:00:27.563Z,2.90
2022-11-12T05:02:53.979Z,2.78
2022-11-12T05:05:20.417Z,2.93
2022-11-12T05:07:49.008Z,2.77
2022-11-12T05:10:15.744Z,3.17
2022-11-12T05:12:42.098Z,3.72
2022-11-12T05:15:08.540Z,3.56
2022-11-12T05:17:34.999Z,3.67
2022-11-12T05:20:01.426Z,3.35
2022-11-12T05:22:43.189Z,3.23
2022-11-12T05:25:12.755Z,3.51
2022-11-12T05:27:49.046Z,3.62
2022-11-12T05:30:17.855Z,3.03
2022-11-12T05:32:45.710Z,3.24
2022-11-12T05:35:12.180Z,3.50
2022-11-12T05:37:38.634Z,3.03
2022-11-12T05:40:07.055Z,3.22
2022-11-12T05:42:33.467Z,3.47
2022-11-12T05:44:59.884Z,3.42
2022-11-12T05:47:26.261Z,3.15
2022-11-12T05:49:52.594Z,3.05
2022-11-12T05:52:19.074Z,3.27
2022-11-12T05:54:45.450Z,3.13
2022-11-12T05:57:12.862Z,3.26
2022-11-12T05:59:39.237Z,3.43
2022-11-12T06:02:05.766Z,4.94
2022-11-12T06:04:32.425Z,5.63
2022-11-12T06:06:58.830Z,4.00
2022-11-12T06:09:25.235Z,4.01
2022-11-12T06:11:51.602Z,3.88
2022-11-12T06:14:18.154Z,3.93
2022-11-12T06:16:44.567Z,3.61
2022-11-12T06:19:10.922Z,2.91
2022-11-12T06:21:37.396Z,2.98
2022-11-12T06:24:04.102Z,3.13
2022-11-12T06:26:30.528Z,3.42
2022-11-12T06:28:56.982Z,3.50
2022-11-12T06:31:23.347Z,3.69
2022-11-12T06:33:49.741Z,3.96
2022-11-12T06:36:17.396Z,3.86
2022-11-12T06:38:43.796Z,4.48
2022-11-12T06:41:10.210Z,6.08
2022-11-12T06:43:36.611Z,5.93
2022-11-12T06:46:03.183Z,3.95
2022-11-12T06:48:29.575Z,3.51
2022-11-12T06:50:55.958Z,3.74
2022-11-12T06:53:22.333Z,4.02
2022-11-12T06:55:48.776Z,5.17
2022-11-12T06:58:15.377Z,4.87
2022-11-12T07:00:41.720Z,3.93
2022-11-12T07:03:08.122Z,4.64
2022-11-12T07:05:34.492Z,4.58
2022-11-12T07:08:00.917Z,4.57
2022-11-12T07:10:28.648Z,4.52
2022-11-12T07:12:55.004Z,4.72
2022-11-12T07:15:23.361Z,4.48
2022-11-12T07:17:49.729Z,4.58
2022-11-12T07:20:17.487Z,4.86
2022-11-12T07:22:43.984Z,4.54
2022-11-12T07:25:11.789Z,4.82
2022-11-12T07:27:38.244Z,4.66
2022-11-12T07:30:04.645Z,4.55
2022-11-12T07:32:31.028Z,4.63
2022-11-12T07:34:57.440Z,4.65
2022-11-12T07:37:23.843Z,4.48
2022-11-12T07:39:50.225Z,4.26
2022-11-12T07:42:16.705Z,5.22
2022-11-12T07:44:43.079Z,6.61
2022-11-12T07:47:09.447Z,6.06
2022-11-12T07:49:35.826Z,6.71
2022-11-12T07:52:02.283Z,6.44
2022-11-12T07:54:31.595Z,5.73
2022-11-12T07:56:58.057Z,5.91
2022-11-12T07:59:24.394Z,5.06
2022-11-12T08:01:50.802Z,4.29
2022-11-12T08:04:17.247Z,4.79
2022-11-12T08:06:43.711Z,4.67
2022-11-12T08:09:10.156Z,5.84
2022-11-12T08:11:36.610Z,5.79
2022-11-12T08:14:03.130Z,6.06
2022-11-12T08:16:29.498Z,5.94
2022-11-12T08:18:55.883Z,5.94
2022-11-12T08:21:22.392Z,6.14
2022-11-12T08:23:56.332Z,5.95
2022-11-12T08:26:25.425Z,5.89
2022-11-12T08:28:51.794Z,5.85
2022-11-12T08:31:18.177Z,6.32
2022-11-12T08:33:44.561Z,8.23
2022-11-12T08:36:11.937Z,7.73
2022-11-12T08:38:38.414Z,6.95
2022-11-12T08:41:04.791Z,6.18
2022-11-12T08:43:32.225Z,5.22
2022-11-12T08:45:58.580Z,4.85
2022-11-12T08:48:25.201Z,4.53
2022-11-12T08:50:51.788Z,4.60
2022-11-12T08:53:18.130Z,5.08
2022-11-12T08:55:44.769Z,6.76
2022-11-12T08:58:11.148Z,5.72
2022-11-12T09:00:37.654Z,4.77
2022-11-12T09:03:04.159Z,5.04
2022-11-12T09:05:30.533Z,5.36
2022-11-12T09:07:56.950Z,5.23
2022-11-12T09:10:23.488Z,5.17
2022-11-12T09:12:49.883Z,4.69
2022-11-12T09:15:37.079Z,4.73
2022-11-12T09:18:02.737Z,5.41
2022-11-12T09:20:29.168Z,5.09
2022-11-12T09:22:55.559Z,4.72
2022-11-12T09:25:22.140Z,4.46
2022-11-12T09:27:48.769Z,4.67
2022-11-12T09:30:15.199Z,4.41
2022-11-12T09:32:41.567Z,4.47
2022-11-12T09:35:07.908Z,4.37
2022-11-12T09:37:34.276Z,4.08
2022-11-12T09:40:00.689Z,4.31
2022-11-12T09:42:27.020Z,4.32
2022-11-12T09:44:53.391Z,4.62
2022-11-12T09:47:19.765Z,4.24
2022-11-12T09:49:47.504Z,4.46
2022-11-12T09:52:13.873Z,4.54
2022-11-12T09:54:40.283Z,4.79
2022-11-12T09:57:06.645Z,4.36
2022-11-12T09:59:33.237Z,4.67
2022-11-12T10:01:59.617Z,4.89
2022-11-12T10:04:25.985Z,5.08
2022-11-12T10:06:52.344Z,5.06
2022-11-12T10:09:18.908Z,5.55
2022-11-12T10:11:45.250Z,5.59
2022-11-12T10:14:11.616Z,5.89
2022-11-12T10:16:39.147Z,7.66
2022-11-12T10:19:05.498Z,7.72
2022-11-12T10:21:31.840Z,9.42
2022-11-12T10:23:58.297Z,10.67
2022-11-12T10:26:24.728Z,11.60
2022-11-12T10:28:51.136Z,11.35
2022-11-12T10:31:17.489Z,11.23
2022-11-12T10:33:43.927Z,13.24
2022-11-12T10:36:10.336Z,13.56
2022-11-12T10:38:36.771Z,14.35
2022-11-12T10:41:08.124Z,14.09
2022-11-12T10:43:36.962Z,14.49
2022-11-12T10:46:03.382Z,14.22
2022-11-12T10:48:30.034Z,13.13
2022-11-12T10:50:56.747Z,13.92
2022-11-12T10:53:23.207Z,14.04
2022-11-12T10:55:49.636Z,12.15
2022-11-12T10:58:16.048Z,12.90
2022-11-12T11:00:42.481Z,12.02
2022-11-12T11:03:08.878Z,11.07
2022-11-12T11:05:35.258Z,11.59
2022-11-12T11:08:01.822Z,11.21
2022-11-12T11:10:28.239Z,10.26
2022-11-12T11:12:54.650Z,10.88
2022-11-12T11:15:21.015Z,10.18
2022-11-12T11:17:47.426Z,10.82
2022-11-12T11:20:13.790Z,11.09
2022-11-12T11:22:40.251Z,10.64
2022-11-12T11:25:06.671Z,10.67
2022-11-12T11:27:33.123Z,10.53
2022-11-12T11:29:59.489Z,10.98
2022-11-12T11:32:25.934Z,11.28
2022-11-12T11:34:52.377Z,11.66
2022-11-12T11:37:18.815Z,11.14
2022-11-12T11:39:45.223Z,11.56
2022-11-12T11:42:11.622Z,12.03
2022-11-12T11:44:38.002Z,11.88
2022-11-12T11:47:04.429Z,11.53
2022-11-12T11:49:30.862Z,12.27
2022-11-12T11:51:57.380Z,12.22
2022-11-12T11:54:23.737Z,12.93
2022-11-12T11:56:50.086Z,12.43
2022-11-12T11:59:16.643Z,13.26
2022-11-12T12:01:43.019Z,13.41
2022-11-12T12:04:09.416Z,14.21
2022-11-12T12:06:35.853Z,13.61
2022-11-12T12:09:02.240Z,14.06
2022-11-12T12:11:31.420Z,15.12
2022-11-12T12:13:57.819Z,15.31
2022-11-12T12:16:24.168Z,17.32
2022-11-12T12:18:50.597Z,17.65
2022-11-12T12:21:16.986Z,17.76
2022-11-12T12:23:43.388Z,17.64
2022-11-12T12:26:09.790Z,17.30
2022-11-12T12:28:36.266Z,17.35
2022-11-12T12:31:02.711Z,16.55
2022-11-12T12:33:29.090Z,16.43
2022-11-12T12:35:55.463Z,16.90
2022-11-12T12:38:21.854Z,16.51
2022-11-12T12:40:48.258Z,16.25
2022-11-12T12:43:14.678Z,16.22
2022-11-12T12:45:41.125Z,16.78
2022-11-12T12:48:07.566Z,16.93
2022-11-12T12:50:34.054Z,16.43
2022-11-12T12:53:03.251Z,16.48
2022-11-12T12:55:29.672Z,17.07
2022-11-12T12:57:56.078Z,17.06
2022-11-12T13:00:22.567Z,17.11
2022-11-12T13:02:49.039Z,16.57
2022-11-12T13:05:16.699Z,16.39
2022-11-12T13:07:51.878Z,17.31
2022-11-12T13:10:18.378Z,16.75
2022-11-12T13:12:44.822Z,16.95
2022-11-12T13:15:11.229Z,17.09
2022-11-12T13:17:37.618Z,20.98
2022-11-12T13:20:04.095Z,17.78
2022-11-12T13:22:30.555Z,17.13
2022-11-12T13:24:56.995Z,16.37
2022-11-12T13:27:23.600Z,18.11
2022-11-12T13:29:49.983Z,19.35
2022-11-12T13:32:16.427Z,17.22
2022-11-12T13:34:44.947Z,17.35
2022-11-12T13:37:11.601Z,17.73
2022-11-12T13:39:38.015Z,16.96
2022-11-12T13:42:04.460Z,17.64
2022-11-12T13:44:32.348Z,17.81
2022-11-12T13:46:58.740Z,17.87
2022-11-12T13:49:25.194Z,17.40
2022-11-12T13:51:56.089Z,17.53
2022-11-12T13:54:22.630Z,17.23
2022-11-12T13:56:49.103Z,17.59
2022-11-12T13:59:15.569Z,17.19
2022-11-12T14:01:42.033Z,17.48
2022-11-12T14:04:08.473Z,17.36
2022-11-12T14:06:35.062Z,17.72
2022-11-12T14:09:01.532Z,17.64
2022-11-12T14:11:28.005Z,17.46
2022-11-12T14:13:54.413Z,17.37
2022-11-12T14:16:20.793Z,17.45
2022-11-12T14:18:47.191Z,17.53
2022-11-12T14:21:13.645Z,17.45
2022-11-12T14:23:40.069Z,16.86
2022-11-12T14:26:06.524Z,17.22
2022-11-12T14:28:32.963Z,17.26
2022-11-12T14:30:59.333Z,17.50
2022-11-12T14:33:25.882Z,19.51
2022-11-12T14:35:52.259Z,17.30
2022-11-12T14:38:18.804Z,16.73
2022-11-12T14:40:45.210Z,17.29
2022-11-12T14:43:15.690Z,17.63
2022-11-12T14:45:44.698Z,16.58
2022-11-12T14:48:11.084Z,17.85
2022-11-12T14:50:40.687Z,17.89
2022-11-12T14:53:08.780Z,17.86
2022-11-12T14:55:35.168Z,17.55
2022-11-12T14:58:01.646Z,17.21
2022-11-12T15:00:28.014Z,17.37
2022-11-12T15:02:59.558Z,17.29
2022-11-12T15:05:27.721Z,17.35
2022-11-12T15:07:54.130Z,17.02
2022-11-12T15:10:20.653Z,16.91
2022-11-12T15:12:48.337Z,18.13
2022-11-12T15:15:15.888Z,17.28
2022-11-12T15:17:42.434Z,17.74
2022-11-12T15:20:08.864Z,17.67
2022-11-12T15:22:35.285Z,17.39
2022-11-12T15:25:01.753Z,17.75
2022-11-12T15:27:28.246Z,17.10
2022-11-12T15:29:54.654Z,19.32
2022-11-12T15:32:21.123Z,19.99
2022-11-12T15:34:47.455Z,21.15
2022-11-12T15:37:13.845Z,18.99
2022-11-12T15:39:42.286Z,18.78
2022-11-12T15:42:08.711Z,19.10
2022-11-12T15:44:37.800Z,19.77
2022-11-12T15:47:06.275Z,19.42
2022-11-12T15:49:32.694Z,19.17
2022-11-12T15:51:59.056Z,18.99
2022-11-12T15:54:25.516Z,18.28
2022-11-12T15:56:51.934Z,18.15
2022-11-12T15:59:18.338Z,18.53
2022-11-12T16:01:44.836Z,18.40
2022-11-12T16:04:14.014Z,18.31
2022-11-12T16:06:46.498Z,18.84
2022-11-12T16:09:12.978Z,18.53
2022-11-12T16:11:39.409Z,18.41
2022-11-12T16:14:05.857Z,18.58
2022-11-12T16:16:32.263Z,19.09
2022-11-12T16:18:58.693Z,19.31
2022-11-12T16:21:25.251Z,18.90
2022-11-12T16:23:51.758Z,20.75
2022-11-12T16:26:18.150Z,21.20
2022-11-12T16:28:44.554Z,20.91
2022-11-12T16:31:10.913Z,21.23
2022-11-12T16:33:37.331Z,22.29
2022-11-12T16:36:05.527Z,19.37
2022-11-12T16:38:31.929Z,18.14
2022-11-12T16:40:58.333Z,17.74
2022-11-12T16:43:24.978Z,17.46
2022-11-12T16:45:51.505Z,18.16
2022-11-12T16:48:17.947Z,18.70
2022-11-12T16:50:44.387Z,18.79
2022-11-12T16:53:11.786Z,18.56
2022-11-12T16:55:38.278Z,18.29
2022-11-12T16:58:04.642Z,18.26
2022-11-12T17:00:31.020Z,18.79
2022-11-12T17:02:57.423Z,18.41
2022-11-12T17:05:23.901Z,18.58
2022-11-12T17:07:50.263Z,20.14
2022-11-12T17:10:16.657Z,20.08
2022-11-12T17:12:43.194Z,18.54
2022-11-12T17:15:09.692Z,18.05
2022-11-12T17:17:36.152Z,17.84
2022-11-12T17:20:02.538Z,18.33
2022-11-12T17:22:29.080Z,19.08
2022-11-12T17:24:55.483Z,18.91
2022-11-12T17:27:21.841Z,18.79
2022-11-12T17:29:48.229Z,19.52
2022-11-12T17:32:14.592Z,19.61
2022-11-12T17:34:41.038Z,19.73
2022-11-12T17:37:07.467Z,20.52
2022-11-12T17:39:33.858Z,20.52
2022-11-12T17:42:00.189Z,22.79
2022-11-12T17:44:26.632Z,20.94
2022-11-12T17:46:53.083Z,18.74
2022-11-12T17:49:19.447Z,19.63
2022-11-12T17:51:45.864Z,20.95
2022-11-12T17:54:12.270Z,20.06
2022-11-12T17:56:38.735Z,19.20
2022-11-12T17:59:05.142Z,19.54
2022-11-12T18:01:31.628Z,18.80
2022-11-12T18:04:00.280Z,18.01
2022-11-12T18:06:26.664Z,18.08
2022-11-12T18:08:53.120Z,17.90
2022-11-12T18:11:19.669Z,17.60
2022-11-12T18:13:46.116Z,16.15
2022-11-12T18:16:14.780Z,14.94
2022-11-12T18:18:41.360Z,13.79
2022-11-12T18:21:07.832Z,14.13
2022-11-12T18:23:35.517Z,15.25
2022-11-12T18:26:01.922Z,15.94
2022-11-12T18:28:28.357Z,14.47
2022-11-12T18:30:54.798Z,14.08
2022-11-12T18:33:21.158Z,12.44
2022-11-12T18:35:47.592Z,12.10
2022-11-12T18:38:13.963Z,11.86
2022-11-12T18:40:40.496Z,12.13
2022-11-12T18:43:06.876Z,10.87
2022-11-12T18:45:33.255Z,10.80
2022-11-12T18:47:59.695Z,10.70
2022-11-12T18:50:26.064Z,11.94
2022-11-12T18:52:52.512Z,11.70
2022-11-12T18:55:18.909Z,11.78
2022-11-12T18:57:45.500Z,11.61
2022-11-12T19:00:11.856Z,11.77
2022-11-12T19:02:38.310Z,10.78
2022-11-12T19:05:04.669Z,11.60
2022-11-12T19:07:31.257Z,14.25
2022-11-12T19:09:57.768Z,11.87
2022-11-12T19:12:24.494Z,11.31
2022-11-12T19:14:50.872Z,11.27
2022-11-12T19:17:17.280Z,11.66
2022-11-12T19:19:43.841Z,11.56
2022-11-12T19:22:10.343Z,13.12
2022-11-12T19:24:36.721Z,17.90
2022-11-12T19:27:03.361Z,17.69
2022-11-12T19:29:29.719Z,17.73
2022-11-12T19:31:56.123Z,17.57
2022-11-12T19:34:22.496Z,15.54
2022-11-12T19:37:00.584Z,14.77
2022-11-12T19:39:35.324Z,13.44
2022-11-12T19:42:01.780Z,16.04
2022-11-12T19:44:28.214Z,16.79
2022-11-12T19:46:55.625Z,13.50
2022-11-12T19:49:22.087Z,13.18
2022-11-12T19:51:48.686Z,12.12
2022-11-12T19:54:15.056Z,13.90
2022-11-12T19:56:41.515Z,14.15
2022-11-12T19:59:07.942Z,15.86
2022-11-12T20:01:34.432Z,15.35
2022-11-12T20:04:02.267Z,14.99
2022-11-12T20:06:28.716Z,15.98
2022-11-12T20:08:55.276Z,16.88
2022-11-12T20:11:21.672Z,17.25
2022-11-12T20:13:48.070Z,15.57
2022-11-12T20:16:24.902Z,14.67
2022-11-12T20:18:53.104Z,14.01
2022-11-12T20:21:19.617Z,13.59
2022-11-12T20:23:46.063Z,15.99
2022-11-12T20:26:12.449Z,15.70
2022-11-12T20:28:38.871Z,14.89
2022-11-12T20:31:05.285Z,14.82
2022-11-12T20:33:31.717Z,14.21
2022-11-12T20:35:58.125Z,14.01
2022-11-12T20:38:24.938Z,15.64
2022-11-12T20:40:51.625Z,16.39
2022-11-12T20:43:18.044Z,17.60
2022-11-12T20:45:44.542Z,18.27
2022-11-12T20:48:11.014Z,19.84
2022-11-12T20:50:37.538Z,20.17
2022-11-12T20:53:03.962Z,17.87
2022-11-12T20:55:34.398Z,17.98
2022-11-12T20:58:11.491Z,18.02
2022-11-12T21:00:40.957Z,19.14
2022-11-12T21:03:07.723Z,19.98
2022-11-12T21:05:34.208Z,20.82
2022-11-12T21:08:00.648Z,19.22
2022-11-12T21:10:27.139Z,17.99
2022-11-12T21:12:53.625Z,17.83
2022-11-12T21:15:20.174Z,18.08
2022-11-12T21:17:46.628Z,18.85
2022-11-12T21:20:13.336Z,18.37
2022-11-12T21:22:39.741Z,17.80
2022-11-12T21:25:06.266Z,15.49
2022-11-12T21:27:32.669Z,14.53
2022-11-12T21:29:59.118Z,14.10
2022-11-12T21:32:25.550Z,14.18
2022-11-12T21:34:52.002Z,13.70
2022-11-12T21:37:18.553Z,13.08
2022-11-12T21:39:44.938Z,12.55
2022-11-12T21:42:11.410Z,12.79
2022-11-12T21:44:37.826Z,12.52
2022-11-12T21:47:04.322Z,12.51
2022-11-12T21:49:30.690Z,12.32
2022-11-12T21:51:57.147Z,13.31
2022-11-12T21:54:23.544Z,12.51
2022-11-12T21:56:49.891Z,12.88
2022-11-12T21:59:18.707Z,12.44
2022-11-12T22:01:45.190Z,13.12
2022-11-12T22:04:18.355Z,13.11
2022-11-12T22:06:45.043Z,15.16
2022-11-12T22:09:11.513Z,15.15
2022-11-12T22:11:37.893Z,16.01
2022-11-12T22:14:04.346Z,16.03
2022-11-12T22:16:30.800Z,20.36
2022-11-12T22:18:58.336Z,22.13
2022-11-12T22:21:27.181Z,22.00
2022-11-12T22:23:53.538Z,21.91
2022-11-12T22:26:19.972Z,23.09
2022-11-12T22:28:46.382Z,20.71
2022-11-12T22:31:12.754Z,17.98
2022-11-12T22:33:39.201Z,17.57
2022-11-12T22:36:05.569Z,17.47
2022-11-12T22:38:35.156Z,16.99
2022-11-12T22:41:01.676Z,16.87
2022-11-12T22:43:28.130Z,17.99
2022-11-12T22:45:56.726Z,17.94
2022-11-12T22:48:23.203Z,18.44
2022-11-12T22:50:49.652Z,16.27
2022-11-12T22:53:16.225Z,14.76
2022-11-12T22:55:42.625Z,13.67
2022-11-12T22:58:09.082Z,12.90
2022-11-12T23:00:35.492Z,12.22
2022-11-12T23:03:01.926Z,11.00
2022-11-12T23:05:28.419Z,11.66
2022-11-12T23:08:01.138Z,12.01
2022-11-12T23:10:27.548Z,12.71
2022-11-12T23:12:53.960Z,12.62
2022-11-12T23:15:20.359Z,13.55
2022-11-12T23:17:48.075Z,15.29
2022-11-12T23:20:14.471Z,15.42
2022-11-12T23:22:40.860Z,14.62
2022-11-12T23:25:11.606Z,16.19
2022-11-12T23:27:38.146Z,16.19
2022-11-12T23:30:05.583Z,16.62
2022-11-12T23:32:31.934Z,14.94
2022-11-12T23:34:58.678Z,14.90
2022-11-12T23:37:35.289Z,14.17
2022-11-12T23:40:01.784Z,13.45
2022-11-12T23:42:29.211Z,13.62
2022-11-12T23:44:55.641Z,12.77
2022-11-12T23:47:22.096Z,12.27
2022-11-12T23:49:48.520Z,12.32
2022-11-12T23:52:17.709Z,12.77
2022-11-12T23:54:45.522Z,14.16
2022-11-12T23:57:11.938Z,14.19
2022-11-12T23:59:38.439Z,13.02
